Cosco Nagoya — 3ESJ8 — position and weather

sailwx.info

Track history (hours):
 
Tides and Currents Weather Stations Pressure Air Temp Water Temp Dewpoint Dewpoint Depression Visibility Wind Speed Wind Dir Waves Ship Positions

Cosco Nagoya

Last reported at 2017-Aug-19 22:30 UTC. Time now 2017-Aug-19 22:39 UTC.
Position N 22°20' E 114°08'.

Length 260 m; draft 11.3 m.

Type: Cargo ship. MMSI: 370320000.

Date/timePositionNaut miles runAvg speedWind from/ knotsBaromVisibWave heightAir tempDewpointWater temp
2017-Aug-19 22:30N 22°20' E 114°08'0 0.1
2017-Aug-19 19:46N 22°20' E 114°08'0 0.0
2017-Aug-19 19:28N 22°20' E 114°08'0 0.0
2017-Aug-19 13:12N 22°20' E 114°08'1 2.7
2017-Aug-19 12:54N 22°19' E 114°07'23815.6
2017-Aug-18 21:41N 23°32' E 118°13'417.0
2017-Aug-18 21:28N 23°34' E 118°16'1816.8
2017-Aug-18 20:26N 23°45' E 118°31'717.0
2017-Aug-18 20:00N 23°50' E 118°37'916.7
2017-Aug-18 19:28N 23°56' E 118°44'1317.7
2017-Aug-18 18:45N 24°04' E 118°54'518.0
2017-Aug-18 18:29N 24°08' E 118°58'918.4
2017-Aug-18 18:00N 24°14' E 119°05'917.9
2017-Aug-18 17:30N 24°20' E 119°12'917.8
2017-Aug-18 17:00N 24°26' E 119°19'1018.0
2017-Aug-18 16:26N 24°33' E 119°28'817.9
2017-Aug-18 16:00N 24°38' E 119°34'917.8
2017-Aug-18 15:30N 24°45' E 119°40'917.5
2017-Aug-18 15:00N 24°52' E 119°46'816.6
2017-Aug-18 14:30N 24°59' E 119°50'1716.7
2017-Aug-18 13:28N 25°11' E 120°04'1017.1
2017-Aug-18 12:55N 25°18' E 120°11'717.1
2017-Aug-18 12:29N 25°24' E 120°17'26217.9
2017-Aug-17 21:50N 29°17' E 122°31'618.5
2017-Aug-17 21:30N 29°23' E 122°32'917.9
2017-Aug-17 20:59N 29°32' E 122°31'816.9
2017-Aug-17 20:30N 29°39' E 122°26'612.4
2017-Aug-17 20:00N 29°43' E 122°21'612.3
2017-Aug-17 19:30N 29°47' E 122°16'510.7
2017-Aug-17 19:01N 29°51' E 122°12'613.0
2017-Aug-17 18:30N 29°55' E 122°06'713.6
2017-Aug-17 18:01N 29°58' E 121°59'713.6
2017-Aug-17 17:30N 29°57' E 121°51'0 0.7
2017-Aug-17 16:52N 29°57' E 121°50'0 0.0
2017-Aug-17 16:28N 29°57' E 121°50'0 0.0
2017-Aug-17 15:59N 29°57' E 121°50'0 0.0
2017-Aug-17 15:22N 29°57' E 121°50'0 0.0
2017-Aug-17 14:41N 29°57' E 121°50'0 0.0
2017-Aug-17 14:10N 29°57' E 121°50'0 0.0
2017-Aug-17 13:58N 29°57' E 121°50'0 0.0
2017-Aug-17 13:17N 29°57' E 121°50'0 0.0
2017-Aug-17 11:40N 29°57' E 121°50'0 0.0
2017-Aug-17 11:22N 29°57' E 121°50'0 0.0
2017-Aug-17 10:59N 29°57' E 121°50'0 0.0
2017-Aug-17 10:22N 29°57' E 121°50'0 0.0
2017-Aug-17 09:53N 29°57' E 121°50'0 0.0
2017-Aug-17 09:11N 29°57' E 121°50'0 0.0
2017-Aug-17 08:53N 29°57' E 121°50'0 0.0
2017-Aug-17 08:22N 29°57' E 121°50'0 0.0
2017-Aug-17 07:58N 29°57' E 121°50'0 0.0
2017-Aug-17 07:22N 29°57' E 121°50'0 0.0
2017-Aug-17 06:59N 29°57' E 121°50'0 0.0
2017-Aug-17 06:16N 29°57' E 121°50'0 0.0
2017-Aug-17 05:40N 29°57' E 121°50'0 0.0
2017-Aug-17 05:29N 29°57' E 121°50'0 0.0
2017-Aug-17 04:53N 29°57' E 121°50'0 0.0
2017-Aug-17 04:16N 29°57' E 121°50'0 0.0
2017-Aug-17 03:59N 29°57' E 121°50'1 3.0
2017-Aug-17 03:30N 29°57' E 121°52'611.5
2017-Aug-17 03:00N 29°58' E 121°58'612.4
2017-Aug-17 02:30N 29°56' E 122°05'612.9
2017-Aug-17 02:01N 29°53' E 122°11'510.9
2017-Aug-17 01:30N 29°48' E 122°09'612.2
2017-Aug-17 01:00N 29°44' E 122°14'510.6
2017-Aug-17 00:30N 29°42' E 122°20'612.0
2017-Aug-17 00:00N 29°42' E 122°27'4 8.2
2017-Aug-16 23:30N 29°41' E 122°31'5 9.4
2017-Aug-16 23:00N 29°42' E 122°36'1 2.3
2017-Aug-16 22:30N 29°43' E 122°38'0 0.5
2017-Aug-16 21:27N 29°42' E 122°38'0 0.5
2017-Aug-16 20:57N 29°42' E 122°38'1 1.4
2017-Aug-16 20:30N 29°42' E 122°38'3 5.0
2017-Aug-16 20:00N 29°41' E 122°35'510.0
2017-Aug-16 19:30N 29°42' E 122°41'611.4
2017-Aug-16 19:00N 29°43' E 122°47'611.7
2017-Aug-16 18:30N 29°44' E 122°53'611.2
2017-Aug-16 17:59N 29°47' E 122°60'611.7
2017-Aug-16 17:30N 29°51' E 123°04'611.7
2017-Aug-16 17:00N 29°53' E 123°10'711.3
2017-Aug-16 16:26N 29°56' E 123°17'510.8
2017-Aug-16 16:00N 29°59' E 123°21'77 8.2
2017-Aug-16 06:37N 31°05' E 122°35'110.4
2017-Aug-16 06:29N 31°05' E 122°34'510.8
2017-Aug-16 06:00N 31°05' E 122°28'5 9.7
2017-Aug-16 05:30N 31°06' E 122°22'713.4
2017-Aug-16 05:00N 31°08' E 122°15'714.6
2017-Aug-16 04:30N 31°12' E 122°08'713.9
2017-Aug-16 04:00N 31°15' E 122°00'715.0
2017-Aug-16 03:30N 31°16' E 121°52'815.1
2017-Aug-16 03:00N 31°19' E 121°43'612.1
2017-Aug-16 02:30N 31°22' E 121°37'2 4.9
2017-Aug-16 02:00N 31°23' E 121°34'0 0.0
2017-Aug-16 01:30N 31°23' E 121°34'0 0.0
2017-Aug-16 01:00N 31°23' E 121°34'0 0.0
2017-Aug-16 00:30N 31°23' E 121°34'0 0.0
2017-Aug-16 00:00N 31°23' E 121°34'0 0.0
2017-Aug-15 23:30N 31°23' E 121°34'0 0.0
2017-Aug-15 23:00N 31°23' E 121°34'0 0.0
2017-Aug-15 22:30N 31°23' E 121°34'0 0.0
2017-Aug-15 22:00N 31°23' E 121°34'0 0.0
2017-Aug-15 21:30N 31°23' E 121°34'0 0.0
2017-Aug-15 21:00N 31°23' E 121°34'0 0.0
2017-Aug-15 20:27N 31°23' E 121°34'0 0.0
2017-Aug-15 20:00N 31°23' E 121°34'0 0.0
2017-Aug-15 19:27N 31°23' E 121°34'0 0.0
2017-Aug-15 19:00N 31°23' E 121°34'0 0.0
2017-Aug-15 18:30N 31°23' E 121°34'0 0.0
2017-Aug-15 18:00N 31°23' E 121°34'0 0.0
2017-Aug-15 17:30N 31°23' E 121°34'0 0.0
2017-Aug-15 17:00N 31°23' E 121°34'0 0.0
2017-Aug-15 16:30N 31°23' E 121°34'0 0.0
2017-Aug-15 16:00N 31°23' E 121°34'0 0.0
2017-Aug-15 15:30N 31°23' E 121°34'0 0.0
2017-Aug-15 15:00N 31°23' E 121°34'0 0.0
2017-Aug-15 14:24N 31°23' E 121°34'0 0.0
2017-Aug-15 13:57N 31°23' E 121°34'0 0.0
2017-Aug-15 13:30N 31°23' E 121°34'0 0.0
2017-Aug-15 13:00N 31°23' E 121°34'0 0.0
2017-Aug-15 12:30N 31°23' E 121°34'0 0.0
2017-Aug-15 12:00N 31°23' E 121°34'0 0.0
2017-Aug-15 11:30N 31°23' E 121°34'0 0.0
2017-Aug-15 11:00N 31°23' E 121°34'0 0.0
2017-Aug-15 10:30N 31°23' E 121°34'0 0.0
2017-Aug-15 10:00N 31°23' E 121°34'0 0.0
2017-Aug-15 09:30N 31°23' E 121°34'0 0.0
2017-Aug-15 09:00N 31°23' E 121°34'0 0.0
2017-Aug-15 08:30N 31°23' E 121°34'0 0.0
2017-Aug-15 08:00N 31°23' E 121°34'0 0.0
2017-Aug-15 07:24N 31°23' E 121°34'0 0.0
2017-Aug-15 06:57N 31°23' E 121°34'0 0.2
2017-Aug-15 06:30N 31°23' E 121°34'0 0.2
2017-Aug-15 06:00N 31°23' E 121°34'0 0.1
2017-Aug-15 05:30N 31°23' E 121°34'0 0.1
2017-Aug-15 05:00N 31°23' E 121°34'0 0.0
2017-Aug-15 04:30N 31°23' E 121°34'0 0.0
2017-Aug-15 04:00N 31°23' E 121°34'0 0.0
2017-Aug-15 03:27N 31°23' E 121°34'0 0.0
2017-Aug-15 03:00N 31°23' E 121°34'0 0.0
2017-Aug-15 02:30N 31°23' E 121°34'0 0.0
2017-Aug-15 02:00N 31°23' E 121°34'0 0.0
2017-Aug-15 01:30N 31°23' E 121°34'0 0.0
2017-Aug-15 01:00N 31°23' E 121°34'0 0.0
2017-Aug-15 00:30N 31°23' E 121°34'0 0.1
2017-Aug-15 00:00N 31°23' E 121°34'0 0.1
2017-Aug-14 23:30N 31°23' E 121°34'0 0.0
2017-Aug-14 23:00N 31°23' E 121°34'0 0.0
2017-Aug-14 22:30N 31°23' E 121°34'0 0.0
2017-Aug-14 22:00N 31°23' E 121°34'0 0.0
2017-Aug-14 21:30N 31°23' E 121°34'0 0.0
2017-Aug-14 21:00N 31°23' E 121°34'0 0.0
2017-Aug-14 20:30N 31°23' E 121°34'0 0.0
2017-Aug-14 20:00N 31°23' E 121°34'0 0.3
2017-Aug-14 19:30N 31°23' E 121°34'3 5.7
2017-Aug-14 19:00N 31°22' E 121°38'611.2
2017-Aug-14 18:30N 31°19' E 121°43'612.4
2017-Aug-14 18:01N 31°17' E 121°50'714.7
2017-Aug-14 17:30N 31°15' E 121°58'713.2
2017-Aug-14 17:00N 31°14' E 122°06'4 9.0
2017-Aug-14 16:30N 31°11' E 122°10'5 9.2
2017-Aug-14 16:00N 31°08' E 122°15'4 8.9
2017-Aug-14 15:30N 31°06' E 122°19'611.2
2017-Aug-14 15:00N 31°07' E 122°25'4 8.1
2017-Aug-14 14:30N 31°07' E 122°30'4 8.1
2017-Aug-14 14:00N 31°07' E 122°35'4 7.4
2017-Aug-14 13:30N 31°11' E 122°37'0 0.1
2017-Aug-14 12:58N 31°11' E 122°37'0 0.0
2017-Aug-14 12:28N 31°11' E 122°37'0 0.0
2017-Aug-14 11:58N 31°11' E 122°37'0 0.0
2017-Aug-14 11:25N 31°11' E 122°37'0 0.1
2017-Aug-14 10:55N 31°11' E 122°37'0 0.0
2017-Aug-14 10:28N 31°11' E 122°37'0 0.1
2017-Aug-14 09:55N 31°11' E 122°37'0 0.0
2017-Aug-14 04:58N 31°11' E 122°37'0 0.2
2017-Aug-14 04:28N 31°11' E 122°37'3 6.2
2017-Aug-14 03:54N 31°08' E 122°34'2 4.3
2017-Aug-14 03:29N 31°07' E 122°33'5 9.8
2017-Aug-14 02:59N 31°07' E 122°38'8 2.5
2017-Aug-13 23:44N 31°09' E 122°47'0 0.0
2017-Aug-13 23:26N 31°09' E 122°47'0 0.0
2017-Aug-13 21:20N 31°09' E 122°47'0 0.1
2017-Aug-13 20:53N 31°09' E 122°47'0 0.2
2017-Aug-13 20:26N 31°09' E 122°47'0 0.2
2017-Aug-13 19:50N 31°09' E 122°47'0 0.1
2017-Aug-13 19:17N 31°09' E 122°47'0 0.1
2017-Aug-13 18:50N 31°09' E 122°47'0 0.2
2017-Aug-13 18:26N 31°09' E 122°47'0 0.0
2017-Aug-13 14:14N 31°09' E 122°47'0 0.2
2017-Aug-13 13:50N 31°09' E 122°47'0 0.1
2017-Aug-13 13:29N 31°09' E 122°47'0 0.2
2017-Aug-13 12:53N 31°09' E 122°47'0 0.0
2017-Aug-13 12:26N 31°09' E 122°47'0 0.2
2017-Aug-13 11:56N 31°09' E 122°47'0 0.0
2017-Aug-13 09:32N 31°09' E 122°47'0 0.3
2017-Aug-13 08:35N 31°09' E 122°47'0 0.1
2017-Aug-13 08:17N 31°10' E 122°47'0 0.0
2017-Aug-13 07:59N 31°10' E 122°47'0 0.0
2017-Aug-13 00:48N 31°09' E 122°47'0 0.2
2017-Aug-13 00:29N 31°09' E 122°47'0 0.8
2017-Aug-13 00:00N 31°09' E 122°47'2 3.7
2017-Aug-12 23:24N 31°08' E 122°49'9 8.3
2017-Aug-12 22:21N 31°07' E 122°60'4 9.3
2017-Aug-12 21:52N 31°07' E 123°05'7 9.3
2017-Aug-12 21:06N 31°07' E 123°13'210.0
2017-Aug-12 20:54N 31°06' E 123°15'4 9.2
2017-Aug-12 20:30N 31°07' E 123°19'5 9.5
2017-Aug-12 19:59N 31°12' E 123°20'5 9.4
2017-Aug-12 19:30N 31°16' E 123°23'  
Track history (hours):
 
Tides and Currents Weather Stations Pressure Air Temp Water Temp Dewpoint Dewpoint Depression Visibility Wind Speed Wind Dir Waves Ship Positions

Cosco Nagoya

Last reported at 2017-Aug-19 22:30 UTC. Time now 2017-Aug-19 22:39 UTC.
Position N 22°20' E 114°08'.

Length 260 m; draft 11.3 m.

Type: Cargo ship. MMSI: 370320000.

Date/timePositionNaut miles runAvg speedWind from/ knotsBaromVisibWave heightAir tempDewpointWater temp
2017-Aug-19 22:30N 22°20' E 114°08'0 0.1
2017-Aug-19 19:46N 22°20' E 114°08'0 0.0
2017-Aug-19 19:28N 22°20' E 114°08'0 0.0
2017-Aug-19 13:12N 22°20' E 114°08'1 2.7
2017-Aug-19 12:54N 22°19' E 114°07'23815.6
2017-Aug-18 21:41N 23°32' E 118°13'417.0
2017-Aug-18 21:28N 23°34' E 118°16'1816.8
2017-Aug-18 20:26N 23°45' E 118°31'717.0
2017-Aug-18 20:00N 23°50' E 118°37'916.7
2017-Aug-18 19:28N 23°56' E 118°44'1317.7
2017-Aug-18 18:45N 24°04' E 118°54'518.0
2017-Aug-18 18:29N 24°08' E 118°58'918.4
2017-Aug-18 18:00N 24°14' E 119°05'917.9
2017-Aug-18 17:30N 24°20' E 119°12'917.8
2017-Aug-18 17:00N 24°26' E 119°19'1018.0
2017-Aug-18 16:26N 24°33' E 119°28'817.9
2017-Aug-18 16:00N 24°38' E 119°34'917.8
2017-Aug-18 15:30N 24°45' E 119°40'917.5
2017-Aug-18 15:00N 24°52' E 119°46'816.6
2017-Aug-18 14:30N 24°59' E 119°50'1716.7
2017-Aug-18 13:28N 25°11' E 120°04'1017.1
2017-Aug-18 12:55N 25°18' E 120°11'717.1
2017-Aug-18 12:29N 25°24' E 120°17'26217.9
2017-Aug-17 21:50N 29°17' E 122°31'618.5
2017-Aug-17 21:30N 29°23' E 122°32'917.9
2017-Aug-17 20:59N 29°32' E 122°31'816.9
2017-Aug-17 20:30N 29°39' E 122°26'612.4
2017-Aug-17 20:00N 29°43' E 122°21'612.3
2017-Aug-17 19:30N 29°47' E 122°16'510.7
2017-Aug-17 19:01N 29°51' E 122°12'613.0
2017-Aug-17 18:30N 29°55' E 122°06'713.6
2017-Aug-17 18:01N 29°58' E 121°59'713.6
2017-Aug-17 17:30N 29°57' E 121°51'0 0.7
2017-Aug-17 16:52N 29°57' E 121°50'0 0.0
2017-Aug-17 16:28N 29°57' E 121°50'0 0.0
2017-Aug-17 15:59N 29°57' E 121°50'0 0.0
2017-Aug-17 15:22N 29°57' E 121°50'0 0.0
2017-Aug-17 14:41N 29°57' E 121°50'0 0.0
2017-Aug-17 14:10N 29°57' E 121°50'0 0.0
2017-Aug-17 13:58N 29°57' E 121°50'0 0.0
2017-Aug-17 13:17N 29°57' E 121°50'0 0.0
2017-Aug-17 11:40N 29°57' E 121°50'0 0.0
2017-Aug-17 11:22N 29°57' E 121°50'0 0.0
2017-Aug-17 10:59N 29°57' E 121°50'0 0.0
2017-Aug-17 10:22N 29°57' E 121°50'0 0.0
2017-Aug-17 09:53N 29°57' E 121°50'0 0.0
2017-Aug-17 09:11N 29°57' E 121°50'0 0.0
2017-Aug-17 08:53N 29°57' E 121°50'0 0.0
2017-Aug-17 08:22N 29°57' E 121°50'0 0.0
2017-Aug-17 07:58N 29°57' E 121°50'0 0.0
2017-Aug-17 07:22N 29°57' E 121°50'0 0.0
2017-Aug-17 06:59N 29°57' E 121°50'0 0.0
2017-Aug-17 06:16N 29°57' E 121°50'0 0.0
2017-Aug-17 05:40N 29°57' E 121°50'0 0.0
2017-Aug-17 05:29N 29°57' E 121°50'0 0.0
2017-Aug-17 04:53N 29°57' E 121°50'0 0.0
2017-Aug-17 04:16N 29°57' E 121°50'0 0.0
2017-Aug-17 03:59N 29°57' E 121°50'1 3.0
2017-Aug-17 03:30N 29°57' E 121°52'611.5
2017-Aug-17 03:00N 29°58' E 121°58'612.4
2017-Aug-17 02:30N 29°56' E 122°05'612.9
2017-Aug-17 02:01N 29°53' E 122°11'510.9
2017-Aug-17 01:30N 29°48' E 122°09'612.2
2017-Aug-17 01:00N 29°44' E 122°14'510.6
2017-Aug-17 00:30N 29°42' E 122°20'612.0
2017-Aug-17 00:00N 29°42' E 122°27'4 8.2
2017-Aug-16 23:30N 29°41' E 122°31'5 9.4
2017-Aug-16 23:00N 29°42' E 122°36'1 2.3
2017-Aug-16 22:30N 29°43' E 122°38'0 0.5
2017-Aug-16 21:27N 29°42' E 122°38'0 0.5
2017-Aug-16 20:57N 29°42' E 122°38'1 1.4
2017-Aug-16 20:30N 29°42' E 122°38'3 5.0
2017-Aug-16 20:00N 29°41' E 122°35'510.0
2017-Aug-16 19:30N 29°42' E 122°41'611.4
2017-Aug-16 19:00N 29°43' E 122°47'611.7
2017-Aug-16 18:30N 29°44' E 122°53'611.2
2017-Aug-16 17:59N 29°47' E 122°60'611.7
2017-Aug-16 17:30N 29°51' E 123°04'611.7
2017-Aug-16 17:00N 29°53' E 123°10'711.3
2017-Aug-16 16:26N 29°56' E 123°17'510.8
2017-Aug-16 16:00N 29°59' E 123°21'77 8.2
2017-Aug-16 06:37N 31°05' E 122°35'110.4
2017-Aug-16 06:29N 31°05' E 122°34'510.8
2017-Aug-16 06:00N 31°05' E 122°28'5 9.7
2017-Aug-16 05:30N 31°06' E 122°22'713.4
2017-Aug-16 05:00N 31°08' E 122°15'714.6
2017-Aug-16 04:30N 31°12' E 122°08'713.9
2017-Aug-16 04:00N 31°15' E 122°00'715.0
2017-Aug-16 03:30N 31°16' E 121°52'815.1
2017-Aug-16 03:00N 31°19' E 121°43'612.1
2017-Aug-16 02:30N 31°22' E 121°37'2 4.9
2017-Aug-16 02:00N 31°23' E 121°34'0 0.0
2017-Aug-16 01:30N 31°23' E 121°34'0 0.0
2017-Aug-16 01:00N 31°23' E 121°34'0 0.0
2017-Aug-16 00:30N 31°23' E 121°34'0 0.0
2017-Aug-16 00:00N 31°23' E 121°34'0 0.0
2017-Aug-15 23:30N 31°23' E 121°34'0 0.0
2017-Aug-15 23:00N 31°23' E 121°34'0 0.0
2017-Aug-15 22:30N 31°23' E 121°34'0 0.0
2017-Aug-15 22:00N 31°23' E 121°34'0 0.0
2017-Aug-15 21:30N 31°23' E 121°34'0 0.0
2017-Aug-15 21:00N 31°23' E 121°34'0 0.0
2017-Aug-15 20:27N 31°23' E 121°34'0 0.0
2017-Aug-15 20:00N 31°23' E 121°34'0 0.0
2017-Aug-15 19:27N 31°23' E 121°34'0 0.0
2017-Aug-15 19:00N 31°23' E 121°34'0 0.0
2017-Aug-15 18:30N 31°23' E 121°34'0 0.0
2017-Aug-15 18:00N 31°23' E 121°34'0 0.0
2017-Aug-15 17:30N 31°23' E 121°34'0 0.0
2017-Aug-15 17:00N 31°23' E 121°34'0 0.0
2017-Aug-15 16:30N 31°23' E 121°34'0 0.0
2017-Aug-15 16:00N 31°23' E 121°34'0 0.0
2017-Aug-15 15:30N 31°23' E 121°34'0 0.0
2017-Aug-15 15:00N 31°23' E 121°34'0 0.0
2017-Aug-15 14:24N 31°23' E 121°34'0 0.0
2017-Aug-15 13:57N 31°23' E 121°34'0 0.0
2017-Aug-15 13:30N 31°23' E 121°34'0 0.0
2017-Aug-15 13:00N 31°23' E 121°34'0 0.0
2017-Aug-15 12:30N 31°23' E 121°34'0 0.0
2017-Aug-15 12:00N 31°23' E 121°34'0 0.0
2017-Aug-15 11:30N 31°23' E 121°34'0 0.0
2017-Aug-15 11:00N 31°23' E 121°34'0 0.0
2017-Aug-15 10:30N 31°23' E 121°34'0 0.0
2017-Aug-15 10:00N 31°23' E 121°34'0 0.0
2017-Aug-15 09:30N 31°23' E 121°34'0 0.0
2017-Aug-15 09:00N 31°23' E 121°34'0 0.0
2017-Aug-15 08:30N 31°23' E 121°34'0 0.0
2017-Aug-15 08:00N 31°23' E 121°34'0 0.0
2017-Aug-15 07:24N 31°23' E 121°34'0 0.0
2017-Aug-15 06:57N 31°23' E 121°34'0 0.2
2017-Aug-15 06:30N 31°23' E 121°34'0 0.2
2017-Aug-15 06:00N 31°23' E 121°34'0 0.1
2017-Aug-15 05:30N 31°23' E 121°34'0 0.1
2017-Aug-15 05:00N 31°23' E 121°34'0 0.0
2017-Aug-15 04:30N 31°23' E 121°34'0 0.0
2017-Aug-15 04:00N 31°23' E 121°34'0 0.0
2017-Aug-15 03:27N 31°23' E 121°34'0 0.0
2017-Aug-15 03:00N 31°23' E 121°34'0 0.0
2017-Aug-15 02:30N 31°23' E 121°34'0 0.0
2017-Aug-15 02:00N 31°23' E 121°34'0 0.0
2017-Aug-15 01:30N 31°23' E 121°34'0 0.0
2017-Aug-15 01:00N 31°23' E 121°34'0 0.0
2017-Aug-15 00:30N 31°23' E 121°34'0 0.1
2017-Aug-15 00:00N 31°23' E 121°34'0 0.1
2017-Aug-14 23:30N 31°23' E 121°34'0 0.0
2017-Aug-14 23:00N 31°23' E 121°34'0 0.0
2017-Aug-14 22:30N 31°23' E 121°34'0 0.0
2017-Aug-14 22:00N 31°23' E 121°34'0 0.0
2017-Aug-14 21:30N 31°23' E 121°34'0 0.0
2017-Aug-14 21:00N 31°23' E 121°34'0 0.0
2017-Aug-14 20:30N 31°23' E 121°34'0 0.0
2017-Aug-14 20:00N 31°23' E 121°34'0 0.3
2017-Aug-14 19:30N 31°23' E 121°34'3 5.7
2017-Aug-14 19:00N 31°22' E 121°38'611.2
2017-Aug-14 18:30N 31°19' E 121°43'612.4
2017-Aug-14 18:01N 31°17' E 121°50'714.7
2017-Aug-14 17:30N 31°15' E 121°58'713.2
2017-Aug-14 17:00N 31°14' E 122°06'4 9.0
2017-Aug-14 16:30N 31°11' E 122°10'5 9.2
2017-Aug-14 16:00N 31°08' E 122°15'4 8.9
2017-Aug-14 15:30N 31°06' E 122°19'611.2
2017-Aug-14 15:00N 31°07' E 122°25'4 8.1
2017-Aug-14 14:30N 31°07' E 122°30'4 8.1
2017-Aug-14 14:00N 31°07' E 122°35'4 7.4
2017-Aug-14 13:30N 31°11' E 122°37'0 0.1
2017-Aug-14 12:58N 31°11' E 122°37'0 0.0
2017-Aug-14 12:28N 31°11' E 122°37'0 0.0
2017-Aug-14 11:58N 31°11' E 122°37'0 0.0
2017-Aug-14 11:25N 31°11' E 122°37'0 0.1
2017-Aug-14 10:55N 31°11' E 122°37'0 0.0
2017-Aug-14 10:28N 31°11' E 122°37'0 0.1
2017-Aug-14 09:55N 31°11' E 122°37'0 0.0
2017-Aug-14 04:58N 31°11' E 122°37'0 0.2
2017-Aug-14 04:28N 31°11' E 122°37'3 6.2
2017-Aug-14 03:54N 31°08' E 122°34'2 4.3
2017-Aug-14 03:29N 31°07' E 122°33'5 9.8
2017-Aug-14 02:59N 31°07' E 122°38'8 2.5
2017-Aug-13 23:44N 31°09' E 122°47'0 0.0
2017-Aug-13 23:26N 31°09' E 122°47'0 0.0
2017-Aug-13 21:20N 31°09' E 122°47'0 0.1
2017-Aug-13 20:53N 31°09' E 122°47'0 0.2
2017-Aug-13 20:26N 31°09' E 122°47'0 0.2
2017-Aug-13 19:50N 31°09' E 122°47'0 0.1
2017-Aug-13 19:17N 31°09' E 122°47'0 0.1
2017-Aug-13 18:50N 31°09' E 122°47'0 0.2
2017-Aug-13 18:26N 31°09' E 122°47'0 0.0
2017-Aug-13 14:14N 31°09' E 122°47'0 0.2
2017-Aug-13 13:50N 31°09' E 122°47'0 0.1
2017-Aug-13 13:29N 31°09' E 122°47'0 0.2
2017-Aug-13 12:53N 31°09' E 122°47'0 0.0
2017-Aug-13 12:26N 31°09' E 122°47'0 0.2
2017-Aug-13 11:56N 31°09' E 122°47'0 0.0
2017-Aug-13 09:32N 31°09' E 122°47'0 0.3
2017-Aug-13 08:35N 31°09' E 122°47'0 0.1
2017-Aug-13 08:17N 31°10' E 122°47'0 0.0
2017-Aug-13 07:59N 31°10' E 122°47'0 0.0
2017-Aug-13 00:48N 31°09' E 122°47'0 0.2
2017-Aug-13 00:29N 31°09' E 122°47'0 0.8
2017-Aug-13 00:00N 31°09' E 122°47'2 3.7
2017-Aug-12 23:24N 31°08' E 122°49'9 8.3
2017-Aug-12 22:21N 31°07' E 122°60'4 9.3
2017-Aug-12 21:52N 31°07' E 123°05'7 9.3
2017-Aug-12 21:06N 31°07' E 123°13'210.0
2017-Aug-12 20:54N 31°06' E 123°15'4 9.2
2017-Aug-12 20:30N 31°07' E 123°19'5 9.5
2017-Aug-12 19:59N 31°12' E 123°20'5 9.4
2017-Aug-12 19:30N 31°16' E 123°23'  

Dump ship's entire track history